createdAt,value
2022-07-26T00:00:56.722Z,19.84
2022-07-26T00:02:01.244Z,19.86
2022-07-26T00:03:05.429Z,19.83
2022-07-26T00:04:09.773Z,19.83
2022-07-26T00:05:13.889Z,19.86
2022-07-26T00:06:19.073Z,19.86
2022-07-26T00:07:23.387Z,19.75
2022-07-26T00:08:27.425Z,19.76
2022-07-26T00:09:31.585Z,19.73
2022-07-26T00:10:39.095Z,19.71
2022-07-26T00:11:44.338Z,19.74
2022-07-26T00:12:48.405Z,19.77
2022-07-26T00:13:52.882Z,19.77
2022-07-26T00:14:57.010Z,19.77
2022-07-26T00:16:01.608Z,19.77
2022-07-26T00:17:06.423Z,19.77
2022-07-26T00:18:13.634Z,19.72
2022-07-26T00:19:16.596Z,19.67
2022-07-26T00:20:22.400Z,19.69
2022-07-26T00:21:28.629Z,19.69
2022-07-26T00:22:35.816Z,19.65
2022-07-26T00:23:39.000Z,19.60
2022-07-26T00:24:43.136Z,19.61
2022-07-26T00:25:47.847Z,19.61
2022-07-26T00:26:51.915Z,19.56
2022-07-26T00:28:19.449Z,19.51
2022-07-26T00:29:04.244Z,19.51
2022-07-26T00:30:09.920Z,19.53
2022-07-26T00:31:15.649Z,19.53
2022-07-26T00:32:21.380Z,19.53
2022-07-26T00:33:25.372Z,19.56
2022-07-26T00:34:29.494Z,19.56
2022-07-26T00:35:33.665Z,19.50
2022-07-26T00:36:41.835Z,19.46
2022-07-26T00:37:43.615Z,19.48
2022-07-26T00:38:47.876Z,19.42
2022-07-26T00:39:52.071Z,19.42
2022-07-26T00:40:56.196Z,19.42
2022-07-26T00:42:00.316Z,19.43
2022-07-26T00:43:05.871Z,19.48
2022-07-26T00:44:10.019Z,19.48
2022-07-26T00:45:14.867Z,19.43
2022-07-26T00:46:19.502Z,19.47
2022-07-26T00:47:23.790Z,19.45
2022-07-26T00:48:28.009Z,19.44
2022-07-26T00:49:32.321Z,19.44
2022-07-26T00:50:37.181Z,19.42
2022-07-26T00:51:41.343Z,19.43
2022-07-26T00:52:47.911Z,19.43
2022-07-26T00:53:52.088Z,19.42
2022-07-26T00:54:56.281Z,19.43
2022-07-26T00:56:00.502Z,19.41
2022-07-26T00:57:05.206Z,19.42
2022-07-26T00:58:09.322Z,19.41
2022-07-26T00:59:14.881Z,19.41
2022-07-26T01:00:23.444Z,19.41
2022-07-26T01:01:28.066Z,19.43
2022-07-26T01:02:32.550Z,19.43
2022-07-26T01:03:39.697Z,19.43
2022-07-26T01:04:44.873Z,19.43
2022-07-26T01:05:49.269Z,19.42
2022-07-26T01:06:53.565Z,19.41
2022-07-26T01:07:57.755Z,19.41
2022-07-26T01:09:02.258Z,19.42
2022-07-26T01:10:08.921Z,19.42
2022-07-26T01:11:13.026Z,19.40
2022-07-26T01:12:17.137Z,19.38
2022-07-26T01:13:23.227Z,19.38
2022-07-26T01:14:27.601Z,19.38
2022-07-26T01:15:31.648Z,19.36
2022-07-26T01:16:36.077Z,19.36
2022-07-26T01:17:40.351Z,19.36
2022-07-26T01:18:44.428Z,19.35
2022-07-26T01:19:48.409Z,19.35
2022-07-26T01:20:54.384Z,19.35
2022-07-26T01:22:01.983Z,19.33
2022-07-26T01:23:08.810Z,19.34
2022-07-26T01:24:13.169Z,19.33
2022-07-26T01:25:17.394Z,19.33
2022-07-26T01:26:23.332Z,19.32
2022-07-26T01:27:33.663Z,19.29
2022-07-26T01:28:38.760Z,19.26
2022-07-26T01:29:49.944Z,19.23
2022-07-26T01:30:54.140Z,19.21
2022-07-26T01:31:58.244Z,19.20
2022-07-26T01:33:02.385Z,19.20
2022-07-26T01:34:08.546Z,19.18
2022-07-26T01:35:12.956Z,19.17
2022-07-26T01:36:20.571Z,19.13
2022-07-26T01:37:24.571Z,19.13
2022-07-26T01:38:29.034Z,19.10
2022-07-26T01:39:33.078Z,19.07
2022-07-26T01:40:37.413Z,19.07
2022-07-26T01:41:41.988Z,19.07
2022-07-26T01:42:52.267Z,19.08
2022-07-26T01:43:55.138Z,19.08
2022-07-26T01:45:16.614Z,19.06
2022-07-26T01:46:10.301Z,19.06
2022-07-26T01:47:14.393Z,19.06
2022-07-26T01:48:18.429Z,19.06
2022-07-26T01:49:22.581Z,19.03
2022-07-26T01:50:28.667Z,19.01
2022-07-26T01:51:32.428Z,19.01
2022-07-26T01:52:36.563Z,19.02
2022-07-26T01:53:40.624Z,18.99
2022-07-26T01:54:44.685Z,18.99
2022-07-26T01:55:50.919Z,19.00
2022-07-26T01:56:56.276Z,18.97
2022-07-26T01:58:00.380Z,18.98
2022-07-26T01:59:05.120Z,18.99
2022-07-26T02:00:10.228Z,19.00
2022-07-26T02:01:38.714Z,18.99
2022-07-26T02:02:24.563Z,18.99
2022-07-26T02:03:28.800Z,18.95
2022-07-26T02:04:32.901Z,18.94
2022-07-26T02:05:37.082Z,18.94
2022-07-26T02:06:43.074Z,18.96
2022-07-26T02:07:46.836Z,18.94
2022-07-26T02:08:52.613Z,18.93
2022-07-26T02:09:58.341Z,18.93
2022-07-26T02:11:04.173Z,18.94
2022-07-26T02:12:08.587Z,18.94
2022-07-26T02:13:14.289Z,18.94
2022-07-26T02:14:25.634Z,18.95
2022-07-26T02:15:24.102Z,18.91
2022-07-26T02:16:29.649Z,18.91
2022-07-26T02:17:33.848Z,18.94
2022-07-26T02:18:38.144Z,18.94
2022-07-26T02:19:53.117Z,18.96
2022-07-26T02:20:47.935Z,18.96
2022-07-26T02:21:52.032Z,18.98
2022-07-26T02:22:56.148Z,19.01
2022-07-26T02:24:00.163Z,19.00
2022-07-26T02:25:05.570Z,19.01
2022-07-26T02:26:11.273Z,19.01
2022-07-26T02:27:15.683Z,19.02
2022-07-26T02:28:19.778Z,19.03
2022-07-26T02:29:23.980Z,19.04
2022-07-26T02:30:28.436Z,19.04
2022-07-26T02:31:32.905Z,19.07
2022-07-26T02:32:36.792Z,19.11
2022-07-26T02:33:40.825Z,19.11
2022-07-26T02:34:44.978Z,19.38
2022-07-26T02:35:49.121Z,19.55
2022-07-26T02:36:53.105Z,19.55
2022-07-26T02:37:58.566Z,19.95
2022-07-26T02:39:02.618Z,20.11
2022-07-26T02:40:08.385Z,20.11
2022-07-26T02:41:12.417Z,20.53
2022-07-26T02:42:20.245Z,20.70
2022-07-26T02:43:25.965Z,20.92
2022-07-26T02:44:30.789Z,21.09
2022-07-26T02:45:35.440Z,21.25
2022-07-26T02:46:39.781Z,21.41
2022-07-26T02:47:51.899Z,21.57
2022-07-26T02:48:55.951Z,21.80
2022-07-26T02:50:02.620Z,21.80
2022-07-26T02:51:06.752Z,21.95
2022-07-26T02:52:10.753Z,22.31
2022-07-26T02:53:14.801Z,22.48
2022-07-26T02:54:18.759Z,22.48
2022-07-26T02:55:25.152Z,22.67
2022-07-26T02:56:29.175Z,23.02
2022-07-26T02:57:45.727Z,23.02
2022-07-26T02:58:41.985Z,23.39
2022-07-26T02:59:45.966Z,23.39
2022-07-26T03:00:50.005Z,23.75
2022-07-26T03:01:57.074Z,23.75
2022-07-26T03:02:59.880Z,23.90
2022-07-26T03:04:04.077Z,24.22
2022-07-26T03:05:13.744Z,24.34
2022-07-26T03:06:16.263Z,24.48
2022-07-26T03:07:20.258Z,24.57
2022-07-26T03:08:24.396Z,24.57
2022-07-26T03:09:28.526Z,24.68
2022-07-26T03:10:32.684Z,24.87
2022-07-26T03:11:36.771Z,25.02
2022-07-26T03:12:40.802Z,25.28
2022-07-26T03:13:44.810Z,24.30
2022-07-26T03:14:48.848Z,25.48
2022-07-26T03:15:52.838Z,25.48
2022-07-26T03:16:57.034Z,25.61
2022-07-26T03:18:01.100Z,25.75
2022-07-26T03:19:05.129Z,25.92
2022-07-26T03:20:10.383Z,25.92
2022-07-26T03:21:15.819Z,25.98
2022-07-26T03:22:20.597Z,25.51
2022-07-26T03:23:24.739Z,26.13
2022-07-26T03:24:28.712Z,26.21
2022-07-26T03:25:32.674Z,26.30
2022-07-26T03:26:38.657Z,26.46
2022-07-26T03:27:42.720Z,26.57
2022-07-26T03:28:47.067Z,26.69
2022-07-26T03:29:51.271Z,26.83
2022-07-26T03:30:55.371Z,26.83
2022-07-26T03:32:02.383Z,26.89
2022-07-26T03:33:05.257Z,27.06
2022-07-26T03:34:09.417Z,27.20
2022-07-26T03:35:15.197Z,26.26
2022-07-26T03:36:20.705Z,26.26
2022-07-26T03:37:24.949Z,27.26
2022-07-26T03:38:29.020Z,27.26
2022-07-26T03:39:34.237Z,27.22
2022-07-26T03:40:46.125Z,27.34
2022-07-26T03:41:47.189Z,27.40
2022-07-26T03:42:51.342Z,27.40
2022-07-26T03:43:57.394Z,27.39
2022-07-26T03:45:06.606Z,27.50
2022-07-26T03:46:11.211Z,27.50
2022-07-26T03:47:18.953Z,27.61
2022-07-26T03:48:25.804Z,27.61
2022-07-26T03:49:30.347Z,27.73
2022-07-26T03:50:34.449Z,27.80
2022-07-26T03:51:38.597Z,27.80
2022-07-26T03:52:43.047Z,27.72
2022-07-26T03:53:47.142Z,27.72
2022-07-26T03:54:51.305Z,27.82
2022-07-26T03:55:56.944Z,27.82
2022-07-26T03:57:01.128Z,27.86
2022-07-26T03:58:06.893Z,27.87
2022-07-26T03:59:12.132Z,27.87
2022-07-26T04:00:16.265Z,27.97
2022-07-26T04:01:21.511Z,28.10
2022-07-26T04:02:27.966Z,28.19
2022-07-26T04:03:31.972Z,28.41
2022-07-26T04:04:36.093Z,28.41
2022-07-26T04:05:40.328Z,28.42
2022-07-26T04:06:47.896Z,28.45
2022-07-26T04:07:53.206Z,28.41
2022-07-26T04:08:57.678Z,28.52
2022-07-26T04:10:01.736Z,28.52
2022-07-26T04:11:05.861Z,28.57
2022-07-26T04:12:09.926Z,28.68
2022-07-26T04:13:15.271Z,28.71
2022-07-26T04:14:19.420Z,28.74
2022-07-26T04:15:25.080Z,28.84
2022-07-26T04:16:29.357Z,28.85
2022-07-26T04:17:41.142Z,28.86
2022-07-26T04:18:51.830Z,28.86
2022-07-26T04:19:55.964Z,29.04
2022-07-26T04:21:00.094Z,29.09
2022-07-26T04:22:04.478Z,29.10
2022-07-26T04:23:11.993Z,29.12
2022-07-26T04:24:16.762Z,29.23
2022-07-26T04:25:20.909Z,29.44
2022-07-26T04:26:25.905Z,29.44
2022-07-26T04:27:30.086Z,29.42
2022-07-26T04:28:34.441Z,29.29
2022-07-26T04:29:42.559Z,29.33
2022-07-26T04:30:48.254Z,29.42
2022-07-26T04:31:52.299Z,29.52
2022-07-26T04:32:56.604Z,29.59
2022-07-26T04:34:00.660Z,29.78
2022-07-26T04:35:05.267Z,29.78
2022-07-26T04:36:09.554Z,29.72
2022-07-26T04:37:19.989Z,29.89
2022-07-26T04:38:21.086Z,29.93
2022-07-26T04:39:25.133Z,29.99
2022-07-26T04:40:29.461Z,29.99
2022-07-26T04:41:33.881Z,29.93
2022-07-26T04:42:38.413Z,29.91
2022-07-26T04:43:44.031Z,29.91
2022-07-26T04:44:48.013Z,30.04
2022-07-26T04:45:52.965Z,30.23
2022-07-26T04:46:57.210Z,30.23
2022-07-26T04:48:07.958Z,30.36
2022-07-26T04:49:07.059Z,30.34
2022-07-26T04:50:12.906Z,30.34
2022-07-26T04:51:20.845Z,30.47
2022-07-26T04:52:25.014Z,30.50
2022-07-26T04:53:29.005Z,30.50
2022-07-26T04:54:33.069Z,30.58
2022-07-26T04:55:37.786Z,30.51
2022-07-26T04:56:41.928Z,30.57
2022-07-26T04:57:48.620Z,30.53
2022-07-26T04:58:52.726Z,30.55
2022-07-26T05:00:10.155Z,30.55
2022-07-26T05:01:11.037Z,30.57
2022-07-26T05:02:10.081Z,30.57
2022-07-26T05:03:14.128Z,30.63
2022-07-26T05:04:18.197Z,30.72
2022-07-26T05:05:23.000Z,30.70
2022-07-26T05:06:26.976Z,30.82
2022-07-26T05:07:42.088Z,30.75
2022-07-26T05:08:46.115Z,30.69
2022-07-26T05:09:50.082Z,30.74
2022-07-26T05:10:55.832Z,30.61
2022-07-26T05:11:59.822Z,30.64
2022-07-26T05:13:07.567Z,30.64
2022-07-26T05:14:11.806Z,30.55
2022-07-26T05:15:16.602Z,30.58
2022-07-26T05:16:20.853Z,30.52
2022-07-26T05:17:26.523Z,30.40
2022-07-26T05:18:31.663Z,30.40
2022-07-26T05:19:36.641Z,30.27
2022-07-26T05:20:40.849Z,30.27
2022-07-26T05:21:44.881Z,30.27
2022-07-26T05:22:48.863Z,30.42
2022-07-26T05:23:52.920Z,30.25
2022-07-26T05:24:58.933Z,30.23
2022-07-26T05:26:02.699Z,30.23
2022-07-26T05:27:08.451Z,30.47
2022-07-26T05:28:12.563Z,30.47
2022-07-26T05:29:16.531Z,30.28
2022-07-26T05:30:20.955Z,30.28
2022-07-26T05:31:25.422Z,30.35
2022-07-26T05:32:29.489Z,30.33
2022-07-26T05:33:34.810Z,30.14
2022-07-26T05:34:38.790Z,30.14
2022-07-26T05:35:42.914Z,29.96
2022-07-26T05:36:47.156Z,29.76
2022-07-26T05:37:51.220Z,29.76
2022-07-26T05:38:55.259Z,29.72
2022-07-26T05:40:00.892Z,26.53
2022-07-26T05:41:05.730Z,29.81
2022-07-26T05:42:14.173Z,28.77
2022-07-26T05:43:18.310Z,29.53
2022-07-26T05:44:22.343Z,29.53
2022-07-26T05:45:32.282Z,29.38
2022-07-26T05:46:36.956Z,29.24
2022-07-26T05:47:41.090Z,29.27
2022-07-26T05:48:45.130Z,29.27
2022-07-26T05:49:49.205Z,29.26
2022-07-26T05:50:53.269Z,29.26
2022-07-26T05:52:01.158Z,29.39
2022-07-26T05:53:06.674Z,29.36
2022-07-26T05:54:10.755Z,29.29
2022-07-26T05:55:15.006Z,29.28
2022-07-26T05:56:19.048Z,29.31
2022-07-26T05:57:23.139Z,29.15
2022-07-26T05:58:27.207Z,29.15
2022-07-26T05:59:33.597Z,29.04
2022-07-26T06:00:37.743Z,29.04
2022-07-26T06:01:41.961Z,29.04
2022-07-26T06:02:46.042Z,28.90
2022-07-26T06:03:50.295Z,28.93
2022-07-26T06:04:54.517Z,28.86
2022-07-26T06:06:00.152Z,28.86
2022-07-26T06:07:04.278Z,28.89
2022-07-26T06:08:08.436Z,28.92
2022-07-26T06:09:14.559Z,28.92
2022-07-26T06:10:20.267Z,28.93
2022-07-26T06:11:24.495Z,28.94
2022-07-26T06:12:30.132Z,28.62
2022-07-26T06:13:36.654Z,28.62
2022-07-26T06:14:40.809Z,28.65
2022-07-26T06:15:47.453Z,28.52
2022-07-26T06:16:53.629Z,28.56
2022-07-26T06:17:57.548Z,28.64
2022-07-26T06:19:01.667Z,28.64
2022-07-26T06:20:06.427Z,28.68
2022-07-26T06:21:10.470Z,28.68
2022-07-26T06:22:14.507Z,28.68
2022-07-26T06:23:33.571Z,28.65
2022-07-26T06:24:24.501Z,28.64
2022-07-26T06:25:30.068Z,28.59
2022-07-26T06:26:36.113Z,28.75
2022-07-26T06:27:40.185Z,28.75
2022-07-26T06:28:44.347Z,28.79
2022-07-26T06:29:48.264Z,28.81
2022-07-26T06:30:52.291Z,28.81
2022-07-26T06:31:56.377Z,28.83
2022-07-26T06:33:03.416Z,28.83
2022-07-26T06:34:07.793Z,29.03
2022-07-26T06:35:14.390Z,29.17
2022-07-26T06:36:18.757Z,29.20
2022-07-26T06:37:22.875Z,29.20
2022-07-26T06:38:27.053Z,29.22
2022-07-26T06:39:31.038Z,29.26
2022-07-26T06:40:35.843Z,29.39
2022-07-26T06:41:39.866Z,29.44
2022-07-26T06:42:44.337Z,29.51
2022-07-26T06:43:48.388Z,29.62
2022-07-26T06:44:53.958Z,29.54
2022-07-26T06:45:58.040Z,29.54
2022-07-26T06:47:03.517Z,29.51
2022-07-26T06:48:07.587Z,29.59
2022-07-26T06:49:11.591Z,29.54
2022-07-26T06:50:16.486Z,29.52
2022-07-26T06:51:28.256Z,29.27
2022-07-26T06:52:30.661Z,29.33
2022-07-26T06:53:34.705Z,29.06
2022-07-26T06:54:38.720Z,29.06
2022-07-26T06:55:43.168Z,29.05
2022-07-26T06:56:47.180Z,29.15
2022-07-26T06:57:52.807Z,29.15
2022-07-26T06:58:56.773Z,29.41
2022-07-26T07:00:02.457Z,29.41
2022-07-26T07:01:13.555Z,29.35
2022-07-26T07:02:12.416Z,29.35
2022-07-26T07:03:17.165Z,29.29
2022-07-26T07:04:22.908Z,28.95
2022-07-26T07:05:27.007Z,28.89
2022-07-26T07:06:32.701Z,28.90
2022-07-26T07:07:37.031Z,28.71
2022-07-26T07:08:40.994Z,28.44
2022-07-26T07:09:48.324Z,28.36
2022-07-26T07:10:53.522Z,28.33
2022-07-26T07:12:02.458Z,28.33
2022-07-26T07:13:07.154Z,28.34
2022-07-26T07:14:13.714Z,28.34
2022-07-26T07:15:17.448Z,28.21
2022-07-26T07:16:22.231Z,28.38
2022-07-26T07:17:26.306Z,28.38
2022-07-26T07:18:30.352Z,28.37
2022-07-26T07:19:36.450Z,28.45
2022-07-26T07:20:41.142Z,28.44
2022-07-26T07:21:46.832Z,28.51
2022-07-26T07:22:50.875Z,28.58
2022-07-26T07:23:54.854Z,28.53
2022-07-26T07:24:59.918Z,28.53
2022-07-26T07:26:04.004Z,28.35
2022-07-26T07:27:08.590Z,28.41
2022-07-26T07:28:12.622Z,28.45
2022-07-26T07:29:16.973Z,28.38
2022-07-26T07:30:23.737Z,28.38
2022-07-26T07:31:30.500Z,28.52
2022-07-26T07:32:33.662Z,28.35
2022-07-26T07:33:52.907Z,28.55
2022-07-26T07:34:44.939Z,28.55
2022-07-26T07:35:48.905Z,28.66
2022-07-26T07:36:53.597Z,28.76
2022-07-26T07:37:58.495Z,28.70
2022-07-26T07:39:06.310Z,28.71
2022-07-26T07:40:10.109Z,28.71
2022-07-26T07:41:14.314Z,28.58
2022-07-26T07:42:18.900Z,28.58
2022-07-26T07:43:22.940Z,28.48
2022-07-26T07:44:26.959Z,28.55
2022-07-26T07:45:31.009Z,28.57
2022-07-26T07:46:35.700Z,28.49
2022-07-26T07:47:39.789Z,28.54
2022-07-26T07:48:47.579Z,28.54
2022-07-26T07:49:54.933Z,28.43
2022-07-26T07:50:55.362Z,28.36
2022-07-26T07:51:59.491Z,28.26
2022-07-26T07:53:04.181Z,28.32
2022-07-26T07:54:08.310Z,28.32
2022-07-26T07:55:36.915Z,28.22
2022-07-26T07:56:18.427Z,28.13
2022-07-26T07:57:22.533Z,28.13
2022-07-26T07:58:28.557Z,27.69
2022-07-26T07:59:34.231Z,27.69
2022-07-26T08:00:41.903Z,27.68
2022-07-26T08:01:46.098Z,27.85
2022-07-26T08:02:50.218Z,27.98
2022-07-26T08:03:55.851Z,27.98
2022-07-26T08:05:11.435Z,28.06
2022-07-26T08:06:09.178Z,27.91
2022-07-26T08:07:13.247Z,27.91
2022-07-26T08:08:22.146Z,27.78
2022-07-26T08:09:26.301Z,27.56
2022-07-26T08:10:32.311Z,27.46
2022-07-26T08:11:36.527Z,27.46
2022-07-26T08:12:43.911Z,27.43
2022-07-26T08:13:48.266Z,27.43
2022-07-26T08:14:52.449Z,27.36
2022-07-26T08:15:57.193Z,27.55
2022-07-26T08:17:03.311Z,27.52
2022-07-26T08:18:08.689Z,27.39
2022-07-26T08:19:13.416Z,27.51
2022-07-26T08:20:19.162Z,27.51
2022-07-26T08:21:27.535Z,27.49
2022-07-26T08:22:32.572Z,27.49
2022-07-26T08:23:38.409Z,27.51
2022-07-26T08:24:44.501Z,27.51
2022-07-26T08:25:58.049Z,27.35
2022-07-26T08:26:57.068Z,27.50
2022-07-26T08:28:04.350Z,27.55
2022-07-26T08:29:08.433Z,27.62
2022-07-26T08:30:16.852Z,27.62
2022-07-26T08:31:20.263Z,27.65
2022-07-26T08:32:26.025Z,27.65
2022-07-26T08:33:30.412Z,27.66
2022-07-26T08:34:39.187Z,27.66
2022-07-26T08:36:09.375Z,27.62
2022-07-26T08:37:15.897Z,27.44
2022-07-26T08:38:05.208Z,27.24
2022-07-26T08:39:08.261Z,27.24
2022-07-26T08:40:20.728Z,27.10
2022-07-26T08:41:22.259Z,26.92
2022-07-26T08:42:26.477Z,26.97
2022-07-26T08:43:31.935Z,26.89
2022-07-26T08:44:40.884Z,26.83
2022-07-26T08:45:46.509Z,26.83
2022-07-26T08:46:57.443Z,26.63
2022-07-26T08:49:11.078Z,26.47
2022-07-26T08:50:17.174Z,26.52
2022-07-26T08:51:23.937Z,26.52
2022-07-26T08:52:28.474Z,26.68
2022-07-26T08:53:36.815Z,26.82
2022-07-26T08:54:51.329Z,26.82
2022-07-26T08:56:06.809Z,26.99
2022-07-26T08:57:04.367Z,27.15
2022-07-26T08:58:08.434Z,27.15
2022-07-26T08:59:20.988Z,27.28
2022-07-26T09:00:27.958Z,27.43
2022-07-26T09:01:33.641Z,27.38
2022-07-26T09:02:43.595Z,27.38
2022-07-26T09:03:49.266Z,27.40
2022-07-26T09:06:34.397Z,27.40
2022-07-26T09:07:33.485Z,27.06
2022-07-26T09:08:37.461Z,27.06
2022-07-26T09:09:56.621Z,27.04
2022-07-26T09:11:02.674Z,27.01
2022-07-26T09:12:18.770Z,27.12
2022-07-26T09:13:24.417Z,27.07
2022-07-26T09:14:37.023Z,27.07
2022-07-26T09:15:42.835Z,27.19
2022-07-26T09:17:00.001Z,27.25
2022-07-26T09:18:07.850Z,27.25
2022-07-26T09:20:31.701Z,26.95
2022-07-26T09:21:00.178Z,27.03
2022-07-26T09:21:37.405Z,26.95
2022-07-26T09:23:03.704Z,26.89
2022-07-26T09:24:07.931Z,26.86
2022-07-26T09:25:32.564Z,26.97
2022-07-26T09:26:36.785Z,27.15
2022-07-26T09:27:40.722Z,27.14
2022-07-26T09:28:46.222Z,27.14
2022-07-26T09:29:54.337Z,27.08
2022-07-26T09:31:04.132Z,27.16
2022-07-26T09:32:15.346Z,27.16
2022-07-26T09:33:21.402Z,27.14
2022-07-26T09:34:29.965Z,27.32
2022-07-26T09:35:50.003Z,27.33
2022-07-26T09:36:53.571Z,27.33
2022-07-26T09:38:02.195Z,27.25
2022-07-26T09:39:07.909Z,27.12
2022-07-26T09:40:14.857Z,27.18
2022-07-26T09:41:25.436Z,27.27
2022-07-26T09:42:31.016Z,27.29
2022-07-26T09:43:37.550Z,27.30
2022-07-26T09:44:47.902Z,27.42
2022-07-26T09:46:08.201Z,27.51
2022-07-26T09:47:12.111Z,27.51
2022-07-26T09:48:19.067Z,27.72
2022-07-26T09:49:27.231Z,27.64
2022-07-26T09:50:34.689Z,27.64
2022-07-26T09:51:45.835Z,27.55
2022-07-26T09:53:10.685Z,27.37
2022-07-26T09:54:32.033Z,27.37
2022-07-26T09:55:29.629Z,27.25
2022-07-26T09:56:51.294Z,27.29
2022-07-26T09:57:56.945Z,27.44
2022-07-26T09:59:09.189Z,27.39
2022-07-26T10:00:23.303Z,27.39
2022-07-26T10:01:39.575Z,27.35
2022-07-26T10:02:46.048Z,27.28
2022-07-26T10:03:53.413Z,27.22
2022-07-26T10:04:56.067Z,27.22
2022-07-26T10:06:01.356Z,27.11
2022-07-26T10:07:07.072Z,27.10
2022-07-26T10:08:25.877Z,27.02
2022-07-26T10:09:23.282Z,27.18
2022-07-26T10:10:43.834Z,27.18
2022-07-26T10:12:02.658Z,27.38
2022-07-26T10:13:08.822Z,27.57
2022-07-26T10:14:37.778Z,27.80
2022-07-26T10:15:47.253Z,27.86
2022-07-26T10:16:51.716Z,28.06
2022-07-26T10:17:55.671Z,28.11
2022-07-26T10:19:01.799Z,28.11
2022-07-26T10:20:17.030Z,28.17
2022-07-26T10:21:27.467Z,28.17
2022-07-26T10:22:44.280Z,28.28
2022-07-26T10:23:58.233Z,28.34
2022-07-26T10:25:24.998Z,28.27
2022-07-26T10:26:38.107Z,28.11
2022-07-26T10:27:43.793Z,27.90
2022-07-26T10:28:49.519Z,27.90
2022-07-26T10:29:56.529Z,27.90
2022-07-26T10:31:27.748Z,27.78
2022-07-26T10:32:34.652Z,27.89
2022-07-26T10:33:41.752Z,27.89
2022-07-26T10:34:46.329Z,27.91
2022-07-26T10:35:50.495Z,27.96
2022-07-26T10:37:01.976Z,28.00
2022-07-26T10:38:10.817Z,27.98
2022-07-26T10:39:18.341Z,27.95
2022-07-26T10:40:26.638Z,27.84
2022-07-26T10:41:46.826Z,27.84
2022-07-26T10:42:50.794Z,27.62
2022-07-26T10:44:18.681Z,27.62
2022-07-26T10:45:23.989Z,27.64
2022-07-26T10:46:31.329Z,27.61
2022-07-26T10:47:39.509Z,27.61
2022-07-26T10:49:04.890Z,27.57
2022-07-26T10:50:10.573Z,27.64
2022-07-26T10:51:26.016Z,27.48
2022-07-26T10:52:32.161Z,27.48
2022-07-26T10:53:36.642Z,27.49
2022-07-26T10:55:01.696Z,27.54
2022-07-26T10:56:08.434Z,27.54
2022-07-26T10:57:12.443Z,27.72
2022-07-26T10:58:16.911Z,27.72
2022-07-26T10:59:54.231Z,27.72
2022-07-26T11:00:37.954Z,27.84
2022-07-26T11:01:52.343Z,27.94
2022-07-26T11:02:59.010Z,27.98
2022-07-26T11:04:03.499Z,27.98
2022-07-26T11:05:13.247Z,27.57
2022-07-26T11:06:19.684Z,27.61
2022-07-26T11:07:23.726Z,27.59
2022-07-26T11:08:31.785Z,27.59
2022-07-26T11:09:37.018Z,27.33
2022-07-26T11:10:44.461Z,27.33
2022-07-26T11:11:50.656Z,27.43
2022-07-26T11:13:04.032Z,27.43
2022-07-26T11:14:14.138Z,27.49
2022-07-26T11:15:20.393Z,27.41
2022-07-26T11:16:26.021Z,27.36
2022-07-26T11:17:31.637Z,27.33
2022-07-26T11:18:37.896Z,27.33
2022-07-26T11:19:41.927Z,27.29
2022-07-26T11:20:48.954Z,27.29
2022-07-26T11:22:03.367Z,27.29
2022-07-26T11:23:29.978Z,27.37
2022-07-26T11:24:35.534Z,27.39
2022-07-26T11:25:39.716Z,27.33
2022-07-26T11:26:47.668Z,27.33
2022-07-26T11:28:07.226Z,27.26
2022-07-26T11:29:16.714Z,27.34
2022-07-26T11:30:23.863Z,27.34
2022-07-26T11:31:50.582Z,27.23
2022-07-26T11:32:56.765Z,27.34
2022-07-26T11:34:03.216Z,27.43
2022-07-26T11:35:12.808Z,27.50
2022-07-26T11:36:22.410Z,27.53
2022-07-26T11:37:28.572Z,27.53
2022-07-26T11:38:48.536Z,27.58
2022-07-26T11:39:52.549Z,27.65
2022-07-26T11:40:57.213Z,27.71
2022-07-26T11:42:10.694Z,27.83
2022-07-26T11:43:20.206Z,27.83
2022-07-26T11:44:31.445Z,27.71
2022-07-26T11:45:33.815Z,27.75
2022-07-26T11:50:22.970Z,27.55
2022-07-26T11:51:29.172Z,27.25
2022-07-26T11:52:34.213Z,27.12
2022-07-26T11:53:43.447Z,27.10
2022-07-26T11:55:04.664Z,27.12
2022-07-26T11:56:19.533Z,27.12
2022-07-26T11:57:24.340Z,27.23
2022-07-26T11:58:28.672Z,27.23
2022-07-26T11:59:35.990Z,27.28
2022-07-26T12:00:45.260Z,27.28
2022-07-26T12:01:54.745Z,27.37
2022-07-26T12:02:56.647Z,27.37
2022-07-26T12:04:02.538Z,27.48
2022-07-26T12:05:22.232Z,27.53
2022-07-26T12:06:31.430Z,27.53
2022-07-26T12:07:42.215Z,24.62
2022-07-26T12:08:55.695Z,27.67
2022-07-26T12:09:55.984Z,27.63
2022-07-26T12:11:03.843Z,27.59
2022-07-26T12:12:19.243Z,27.54
2022-07-26T12:13:23.464Z,27.46
2022-07-26T12:14:32.385Z,27.46
2022-07-26T12:15:46.753Z,27.53
2022-07-26T12:16:57.530Z,27.57
2022-07-26T12:18:02.550Z,27.62
2022-07-26T12:19:11.196Z,27.59
2022-07-26T12:20:25.660Z,27.59
2022-07-26T12:21:45.097Z,27.54
2022-07-26T12:22:59.215Z,27.54
2022-07-26T12:24:11.997Z,27.54
2022-07-26T12:25:18.103Z,27.52
2022-07-26T12:26:41.230Z,27.48
2022-07-26T12:27:50.263Z,27.44
2022-07-26T12:28:51.188Z,27.44
2022-07-26T12:30:04.094Z,27.47
2022-07-26T12:31:34.396Z,27.47
2022-07-26T12:32:37.698Z,27.49
2022-07-26T12:33:54.568Z,27.49
2022-07-26T12:35:03.089Z,27.43
2022-07-26T12:36:27.731Z,27.41
2022-07-26T12:39:15.491Z,27.31
2022-07-26T12:39:37.288Z,27.40
2022-07-26T12:40:20.655Z,27.38
2022-07-26T12:41:45.561Z,27.38
2022-07-26T12:43:01.290Z,26.89
2022-07-26T12:44:04.430Z,27.47
2022-07-26T12:45:13.113Z,27.47
2022-07-26T12:46:22.749Z,27.52
2022-07-26T12:47:37.993Z,27.50
2022-07-26T12:50:14.693Z,27.57
2022-07-26T12:54:42.124Z,27.51
2022-07-26T12:55:51.184Z,27.51
2022-07-26T12:58:23.876Z,27.66
2022-07-26T13:00:18.698Z,27.66
2022-07-26T13:00:36.979Z,27.66
2022-07-26T13:01:44.245Z,27.68
2022-07-26T13:02:53.699Z,27.74
2022-07-26T13:05:23.417Z,27.73
2022-07-26T13:06:51.390Z,27.61
2022-07-26T13:07:59.550Z,27.59
2022-07-26T13:09:03.600Z,27.52
2022-07-26T13:10:35.699Z,27.49
2022-07-26T13:11:23.005Z,27.44
2022-07-26T13:12:35.249Z,27.44
2022-07-26T13:13:38.980Z,27.41
2022-07-26T13:14:44.870Z,27.46
2022-07-26T13:15:50.717Z,27.45
2022-07-26T13:16:59.523Z,27.43
2022-07-26T13:18:03.921Z,27.43
2022-07-26T13:19:09.502Z,24.91
2022-07-26T13:20:13.744Z,27.55
2022-07-26T13:21:19.499Z,27.55
2022-07-26T13:22:28.452Z,27.63
2022-07-26T13:23:35.684Z,27.59
2022-07-26T13:24:40.442Z,27.59
2022-07-26T13:25:44.815Z,27.55
2022-07-26T13:26:51.952Z,27.55
2022-07-26T13:27:56.386Z,27.56
2022-07-26T13:29:07.438Z,27.53
2022-07-26T13:30:10.392Z,27.56
2022-07-26T13:31:16.220Z,27.56
2022-07-26T13:32:20.375Z,27.57
2022-07-26T13:33:27.123Z,27.55
2022-07-26T13:34:35.239Z,27.55
2022-07-26T13:35:41.177Z,27.54
2022-07-26T13:36:46.683Z,27.50
2022-07-26T13:37:55.895Z,27.38
2022-07-26T13:39:01.985Z,27.38
2022-07-26T13:40:08.059Z,27.40
2022-07-26T13:41:12.174Z,27.38
2022-07-26T13:42:17.942Z,27.40
2022-07-26T13:43:24.047Z,27.41
2022-07-26T13:44:32.779Z,27.41
2022-07-26T13:45:38.364Z,27.44
2022-07-26T13:46:42.638Z,27.43
2022-07-26T13:47:46.799Z,27.43
2022-07-26T13:49:00.750Z,27.41
2022-07-26T13:50:00.105Z,27.40
2022-07-26T13:51:04.469Z,27.40
2022-07-26T13:52:12.178Z,27.32
2022-07-26T13:53:16.324Z,27.27
2022-07-26T13:54:23.613Z,27.27
2022-07-26T13:55:30.055Z,27.25
2022-07-26T13:56:41.984Z,27.27
2022-07-26T13:57:55.798Z,27.27
2022-07-26T13:58:51.918Z,27.29
2022-07-26T13:59:58.577Z,27.28
2022-07-26T14:01:02.892Z,27.28
2022-07-26T14:02:11.473Z,27.23
2022-07-26T14:03:19.075Z,27.23
2022-07-26T14:04:25.446Z,27.17
2022-07-26T14:05:31.138Z,27.07
2022-07-26T14:06:37.858Z,27.10
2022-07-26T14:07:41.916Z,27.07
2022-07-26T14:08:49.980Z,27.07
2022-07-26T14:09:55.704Z,27.08
2022-07-26T14:11:01.291Z,27.12
2022-07-26T14:12:11.509Z,27.10
2022-07-26T14:13:11.591Z,27.11
2022-07-26T14:14:15.988Z,27.11
2022-07-26T14:15:23.133Z,27.15
2022-07-26T14:16:29.420Z,27.15
2022-07-26T14:17:38.463Z,27.13
2022-07-26T14:19:52.342Z,27.14
2022-07-26T14:20:20.911Z,27.13
2022-07-26T14:20:58.075Z,27.17
2022-07-26T14:22:05.222Z,27.24
2022-07-26T14:23:09.374Z,27.25
2022-07-26T14:24:15.444Z,27.25
2022-07-26T14:25:20.645Z,27.29
2022-07-26T14:26:27.008Z,27.30
2022-07-26T14:27:31.330Z,27.25
2022-07-26T14:28:35.408Z,27.25
2022-07-26T14:29:39.484Z,27.17
2022-07-26T14:30:43.535Z,27.19
2022-07-26T14:31:49.574Z,27.19